Shorkot Weather



Shorkot's Current Weather

Temprature 26.606o few clouds

few clouds

Rain: 0 %

Min Temprature26.606o
Max Temprature26.606o
Humidity30
Wind Speed3.23 m/h
Sun Rise05:37:56
Sun Set18:42:40
Current Time: 21-Apr-2019 05:40:44
Lat/Lon: 30.83, 72.08




Shorkot's Geo Location



Shorkot's Weather Forecast

Time Overall Temp Min Temp Max Temp Humidity Wind Speed Rain
21-Apr-2019 (Sun)
08:00:00 clear sky 30.320 30.319 30.320 26 3.2 m/h 0 %
11:00:00 clear sky 35.350 35.350 35.350 18 2.38 m/h 0 %
14:00:00 clear sky 37.950 37.950 37.950 15 2.11 m/h 0 %
17:00:00 clear sky 37.950 37.950 37.950 14 2.66 m/h 0 %
20:00:00 clear sky 33.450 33.450 33.450 19 2.78 m/h 0 %
23:00:00 clear sky 31.290 31.290 31.290 23 2.9 m/h 0 %
22-Apr-2019 (Mon)
02:00:00 clear sky 29.070 29.070 29.070 28 3.55 m/h 0 %
05:00:00 clear sky 27.664 27.664 27.664 32 3.47 m/h 0 %
08:00:00 clear sky 31.416 31.416 31.416 27 3.63 m/h 0 %
11:00:00 clear sky 37.120 37.120 37.120 18 2.14 m/h 0 %
14:00:00 clear sky 40.515 40.515 40.515 13 0.55 m/h 0 %
17:00:00 clear sky 40.131 40.131 40.131 11 1.3 m/h 0 %
20:00:00 clear sky 35.650 35.650 35.650 16 2.91 m/h 0 %
23:00:00 clear sky 32.996 32.996 32.996 21 3.28 m/h 0 %
23-Apr-2019 (Tue)
02:00:00 clear sky 30.777 30.777 30.777 24 3.79 m/h 0 %
05:00:00 clear sky 28.966 28.966 28.966 29 3.58 m/h 0 %
08:00:00 overcast clouds 32.547 32.547 32.547 24 3.96 m/h 0 %
11:00:00 scattered clouds 39.250 39.250 39.250 15 3.91 m/h 0 %
14:00:00 clear sky 42.250 42.250 42.250 11 1.35 m/h 0 %
17:00:00 clear sky 42.050 42.050 42.050 9 1.68 m/h 0 %
20:00:00 clear sky 37.128 37.128 37.128 14 1.35 m/h 0 %
23:00:00 scattered clouds 33.950 33.950 33.950 18 3.16 m/h 0 %
24-Apr-2019 (Wed)
02:00:00 overcast clouds 31.982 31.982 31.982 20 3.25 m/h 0 %
05:00:00 broken clouds 30.254 30.254 30.254 20 3.38 m/h 0 %
08:00:00 clear sky 34.550 34.550 34.550 15 3.4 m/h 0 %
11:00:00 clear sky 41.109 41.109 41.109 11 5.52 m/h 0 %
14:00:00 scattered clouds 41.950 41.950 41.950 10 5.66 m/h 0 %
17:00:00 broken clouds 39.050 39.050 39.050 14 7.67 m/h 0 %
20:00:00 broken clouds 34.455 34.455 34.455 22 7.46 m/h 0 %
23:00:00 broken clouds 30.345 30.345 30.345 32 10.5 m/h 0 %
25-Apr-2019 (Thu)
02:00:00 overcast clouds 30.650 30.650 30.650 31 4.9 m/h 0 %
05:00:00 overcast clouds 29.102 29.102 29.102 37 4.2 m/h 0 %
08:00:00 overcast clouds 30.720 30.720 30.720 33 4.15 m/h 0 %
11:00:00 scattered clouds 37.090 37.090 37.090 16 4.97 m/h 0 %
14:00:00 clear sky 38.950 38.950 38.950 13 3.99 m/h 0 %
17:00:00 clear sky 38.611 38.611 38.611 13 3.25 m/h 0 %
20:00:00 scattered clouds 35.025 35.025 35.025 17 3.14 m/h 0 %
23:00:00 scattered clouds 32.143 32.143 32.143 24 4.31 m/h 0 %
26-Apr-2019 (Fri)
02:00:00 broken clouds 30.532 30.532 30.532 27 2.28 m/h 0 %
05:00:00 scattered clouds 29.036 29.036 29.036 28 3.26 m/h 0 %

Famous Cities (60)